Terminal Aerodrome Forecast
Issued by NWS

Home | Current Version | Previous Version | Text Only | Print | Product List | Glossary On
Versions: 1 2 3 4 5 6 7 8 9 10 11 12 13 14 15 16 17 18 19 20 21 22 23 24 25 26 27 28
728
FTUS45 KTFX 141138
TAFHVR
TAF
KHVR 141138Z 1412/1512 23007KT P6SM VCSH BKN100
     FM141800 28020G28KT P6SM BKN120
     FM150000 25008KT P6SM SCT090 BKN150=

USA.gov is the U.S. government's official web portal to all federal, state and local government web resources and services.